createdAt,value
2023-05-15T00:00:14.039Z,4
2023-05-15T00:01:14.904Z,4
2023-05-15T00:02:14.984Z,5
2023-05-15T00:03:14.854Z,5
2023-05-15T00:04:14.865Z,5
2023-05-15T00:05:15.400Z,5
2023-05-15T00:06:15.096Z,5
2023-05-15T00:07:15.418Z,6
2023-05-15T00:08:15.604Z,6
2023-05-15T00:09:14.825Z,6
2023-05-15T00:10:15.453Z,6
2023-05-15T00:11:15.523Z,6
2023-05-15T00:14:14.822Z,5
2023-05-15T00:15:15.066Z,5
2023-05-15T00:16:16.051Z,5
2023-05-15T00:17:14.886Z,5
2023-05-15T00:18:15.600Z,5
2023-05-15T00:19:15.899Z,5
2023-05-15T00:20:14.995Z,5
2023-05-15T00:21:15.331Z,5
2023-05-15T00:22:15.780Z,3
2023-05-15T00:25:15.079Z,3
2023-05-15T00:26:15.144Z,3
2023-05-15T00:27:15.334Z,1
2023-05-15T00:28:15.364Z,1
2023-05-15T00:29:15.228Z,1
2023-05-15T00:30:15.498Z,1
2023-05-15T00:31:15.501Z,1
2023-05-15T00:32:15.086Z,4
2023-05-15T00:33:15.256Z,4
2023-05-15T00:34:15.430Z,4
2023-05-15T00:36:14.964Z,4
2023-05-15T00:37:15.083Z,4
2023-05-15T00:38:15.330Z,4
2023-05-15T00:39:14.801Z,4
2023-05-15T00:40:15.093Z,4
2023-05-15T00:41:14.766Z,4
2023-05-15T00:42:15.306Z,6
2023-05-15T00:43:14.905Z,6
2023-05-15T00:44:14.057Z,6
2023-05-15T00:45:15.254Z,6
2023-05-15T00:47:14.375Z,6
2023-05-15T00:48:14.965Z,6
2023-05-15T00:49:15.047Z,6
2023-05-15T00:50:15.266Z,6
2023-05-15T00:51:15.194Z,6
2023-05-15T00:52:15.294Z,4
2023-05-15T00:53:14.870Z,4
2023-05-15T00:54:15.990Z,4
2023-05-15T00:55:14.798Z,4
2023-05-15T00:56:14.981Z,4
2023-05-15T00:57:15.499Z,4
2023-05-15T00:58:15.785Z,4
2023-05-15T00:59:15.049Z,4
2023-05-15T01:00:15.341Z,4
2023-05-15T01:02:15.004Z,9
2023-05-15T01:03:15.728Z,9
2023-05-15T01:04:15.049Z,9
2023-05-15T01:05:15.561Z,9
2023-05-15T01:06:14.898Z,9
2023-05-15T01:09:15.078Z,8
2023-05-15T01:10:14.710Z,8
2023-05-15T01:11:15.314Z,8
2023-05-15T01:12:15.468Z,8
2023-05-15T01:13:14.398Z,8
2023-05-15T01:14:15.268Z,8
2023-05-15T01:15:15.398Z,8
2023-05-15T01:16:15.405Z,8
2023-05-15T01:17:15.199Z,5
2023-05-15T01:18:15.801Z,5
2023-05-15T01:19:15.886Z,5
2023-05-15T01:20:15.047Z,5
2023-05-15T01:21:15.052Z,5
2023-05-15T01:22:14.910Z,6
2023-05-15T01:23:15.316Z,6
2023-05-15T01:24:15.550Z,6
2023-05-15T01:25:14.950Z,6
2023-05-15T01:26:15.380Z,6
2023-05-15T01:27:15.529Z,8
2023-05-15T01:28:14.988Z,8
2023-05-15T01:29:15.274Z,8
2023-05-15T01:31:13.725Z,8
2023-05-15T01:32:17.198Z,9
2023-05-15T01:33:15.349Z,9
2023-05-15T01:34:14.017Z,9
2023-05-15T01:35:14.945Z,9
2023-05-15T01:36:14.972Z,9
2023-05-15T01:37:15.370Z,7
2023-05-15T01:38:14.605Z,7
2023-05-15T01:39:14.768Z,7
2023-05-15T01:40:15.097Z,7
2023-05-15T01:41:15.547Z,7
2023-05-15T01:42:15.719Z,7
2023-05-15T01:43:15.575Z,7
2023-05-15T01:44:14.918Z,7
2023-05-15T01:45:15.558Z,7
2023-05-15T01:46:15.346Z,7
2023-05-15T01:47:15.401Z,5
2023-05-15T01:48:14.961Z,5
2023-05-15T01:49:15.063Z,5
2023-05-15T01:50:15.457Z,5
2023-05-15T01:51:15.545Z,5
2023-05-15T01:54:14.292Z,5
2023-05-15T01:55:15.745Z,5
2023-05-15T01:56:15.044Z,5
2023-05-15T01:57:14.545Z,5
2023-05-15T01:58:15.611Z,5
2023-05-15T01:59:15.279Z,5
2023-05-15T02:02:15.587Z,1
2023-05-15T02:03:15.735Z,1
2023-05-15T02:04:14.948Z,1
2023-05-15T02:05:15.567Z,1
2023-05-15T02:06:15.171Z,1
2023-05-15T02:07:14.927Z,0
2023-05-15T02:08:14.628Z,0
2023-05-15T02:09:15.393Z,0
2023-05-15T02:10:15.458Z,0
2023-05-15T02:12:15.448Z,3
2023-05-15T02:13:14.923Z,3
2023-05-15T02:14:15.045Z,3
2023-05-15T02:15:14.216Z,3
2023-05-15T02:16:15.524Z,3
2023-05-15T02:18:13.949Z,4
2023-05-15T02:19:15.350Z,4
2023-05-15T02:20:14.853Z,4
2023-05-15T02:21:14.212Z,4
2023-05-15T02:22:15.052Z,5
2023-05-15T02:23:14.603Z,5
2023-05-15T02:24:15.129Z,5
2023-05-15T02:25:14.733Z,5
2023-05-15T02:26:15.071Z,5
2023-05-15T02:27:15.761Z,4
2023-05-15T02:28:14.496Z,4
2023-05-15T02:29:15.489Z,4
2023-05-15T02:32:16.414Z,4
2023-05-15T02:33:14.463Z,4
2023-05-15T02:34:14.994Z,4
2023-05-15T02:35:15.527Z,4
2023-05-15T02:36:14.949Z,4
2023-05-15T02:37:15.117Z,6
2023-05-15T02:38:14.657Z,6
2023-05-15T02:39:15.617Z,6
2023-05-15T02:41:14.440Z,6
2023-05-15T02:42:15.746Z,5
2023-05-15T02:43:15.554Z,5
2023-05-15T02:44:14.450Z,5
2023-05-15T02:45:15.416Z,5
2023-05-15T02:46:15.619Z,5
2023-05-15T02:47:15.652Z,4
2023-05-15T02:48:15.171Z,4
2023-05-15T02:49:15.254Z,4
2023-05-15T02:50:15.258Z,4
2023-05-15T02:51:15.511Z,4
2023-05-15T02:52:15.265Z,5
2023-05-15T02:53:15.044Z,5
2023-05-15T02:54:15.278Z,5
2023-05-15T02:55:15.594Z,5
2023-05-15T02:56:15.064Z,5
2023-05-15T03:01:15.109Z,3
2023-05-15T03:02:14.948Z,4
2023-05-15T03:03:15.646Z,4
2023-05-15T03:05:15.227Z,4
2023-05-15T03:06:14.841Z,4
2023-05-15T03:07:15.822Z,5
2023-05-15T03:08:15.174Z,5
2023-05-15T03:09:15.100Z,5
2023-05-15T03:10:15.193Z,5
2023-05-15T03:11:16.411Z,5
2023-05-15T03:13:14.879Z,5
2023-05-15T03:14:15.024Z,5
2023-05-15T03:15:15.539Z,5
2023-05-15T03:16:15.742Z,5
2023-05-15T03:17:16.024Z,6
2023-05-15T03:18:18.572Z,6
2023-05-15T03:19:15.291Z,6
2023-05-15T03:20:15.547Z,6
2023-05-15T03:21:15.525Z,6
2023-05-15T03:22:14.724Z,8
2023-05-15T03:23:14.897Z,8
2023-05-15T03:24:15.415Z,8
2023-05-15T03:26:15.217Z,8
2023-05-15T03:27:15.588Z,5
2023-05-15T03:28:14.752Z,5
2023-05-15T03:29:15.590Z,5
2023-05-15T03:30:15.638Z,5
2023-05-15T03:31:16.105Z,5
2023-05-15T03:32:15.457Z,4
2023-05-15T03:33:15.651Z,4
2023-05-15T03:34:15.407Z,4
2023-05-15T03:35:15.673Z,4
2023-05-15T03:36:15.740Z,4
2023-05-15T03:37:15.423Z,3
2023-05-15T03:38:15.320Z,3
2023-05-15T03:41:15.030Z,3
2023-05-15T03:46:15.712Z,4
2023-05-15T03:47:15.070Z,1
2023-05-15T03:48:15.313Z,1
2023-05-15T03:49:15.462Z,1
2023-05-15T03:50:15.973Z,1
2023-05-15T03:52:14.087Z,3
2023-05-15T03:53:15.048Z,3
2023-05-15T03:54:14.999Z,3
2023-05-15T03:55:14.248Z,3
2023-05-15T03:56:14.794Z,3
2023-05-15T03:57:14.771Z,3
2023-05-15T03:58:14.998Z,3
2023-05-15T03:59:14.925Z,3
2023-05-15T04:00:15.497Z,3
2023-05-15T04:01:15.448Z,3
2023-05-15T04:02:16.408Z,3
2023-05-15T04:03:15.612Z,3
2023-05-15T04:04:15.727Z,3
2023-05-15T04:05:14.851Z,3
2023-05-15T04:06:15.650Z,3
2023-05-15T04:07:15.527Z,4
2023-05-15T04:08:14.874Z,4
2023-05-15T04:11:14.854Z,4
2023-05-15T04:12:14.742Z,1
2023-05-15T04:13:14.860Z,1
2023-05-15T04:14:15.121Z,1
2023-05-15T04:15:14.608Z,1
2023-05-15T04:16:16.106Z,1
2023-05-15T04:17:15.489Z,3
2023-05-15T04:18:15.800Z,3
2023-05-15T04:19:16.385Z,3
2023-05-15T04:20:15.503Z,3
2023-05-15T04:21:15.304Z,3
2023-05-15T04:22:14.668Z,5
2023-05-15T04:23:15.127Z,5
2023-05-15T04:27:15.501Z,3
2023-05-15T04:28:15.081Z,3
2023-05-15T04:30:15.378Z,3
2023-05-15T04:31:15.207Z,3
2023-05-15T04:32:15.811Z,4
2023-05-15T04:33:15.326Z,4
2023-05-15T04:34:14.959Z,4
2023-05-15T04:35:15.154Z,4
2023-05-15T04:39:14.324Z,3
2023-05-15T04:40:15.209Z,3
2023-05-15T04:41:14.974Z,3
2023-05-15T04:42:15.037Z,4
2023-05-15T04:43:15.162Z,4
2023-05-15T04:44:15.089Z,4
2023-05-15T04:45:15.018Z,4
2023-05-15T04:46:15.400Z,4
2023-05-15T04:47:15.396Z,4
2023-05-15T04:48:15.062Z,4
2023-05-15T04:49:14.814Z,4
2023-05-15T04:50:15.069Z,4
2023-05-15T04:51:15.954Z,4
2023-05-15T04:52:15.666Z,3
2023-05-15T04:53:15.060Z,3
2023-05-15T04:54:15.404Z,3
2023-05-15T04:55:15.893Z,3
2023-05-15T04:58:14.848Z,3
2023-05-15T04:59:14.769Z,3
2023-05-15T05:00:13.694Z,3
2023-05-15T05:02:16.226Z,5
2023-05-15T05:03:16.375Z,5
2023-05-15T05:04:16.538Z,5
2023-05-15T05:05:15.305Z,5
2023-05-15T05:06:15.641Z,5
2023-05-15T05:07:15.635Z,6
2023-05-15T05:08:15.670Z,6
2023-05-15T05:09:15.717Z,6
2023-05-15T05:10:15.391Z,6
2023-05-15T05:11:15.753Z,6
2023-05-15T05:12:14.831Z,3
2023-05-15T05:13:15.407Z,3
2023-05-15T05:14:15.120Z,3
2023-05-15T05:15:15.355Z,3
2023-05-15T05:16:15.636Z,3
2023-05-15T05:17:15.449Z,3
2023-05-15T05:21:15.459Z,3
2023-05-15T05:25:14.890Z,3
2023-05-15T05:26:14.806Z,3
2023-05-15T05:27:15.293Z,3
2023-05-15T05:28:15.204Z,3
2023-05-15T05:29:15.005Z,3
2023-05-15T05:30:15.085Z,3
2023-05-15T05:31:15.286Z,3
2023-05-15T05:32:15.609Z,4
2023-05-15T05:33:15.256Z,4
2023-05-15T05:34:14.739Z,4
2023-05-15T05:35:15.044Z,4
2023-05-15T05:36:15.182Z,4
2023-05-15T05:37:14.763Z,5
2023-05-15T05:38:14.604Z,5
2023-05-15T05:39:15.306Z,5
2023-05-15T05:40:15.397Z,5
2023-05-15T05:41:15.539Z,5
2023-05-15T05:42:14.931Z,6
2023-05-15T05:43:15.291Z,6
2023-05-15T05:44:15.686Z,6
2023-05-15T05:45:14.715Z,6
2023-05-15T05:46:14.881Z,6
2023-05-15T05:47:15.551Z,4
2023-05-15T05:48:15.702Z,4
2023-05-15T05:49:14.728Z,4
2023-05-15T05:52:14.528Z,6
2023-05-15T05:53:14.767Z,6
2023-05-15T05:54:15.687Z,6
2023-05-15T05:55:15.585Z,6
2023-05-15T05:56:15.518Z,6
2023-05-15T05:57:14.794Z,5
2023-05-15T06:00:15.508Z,5
2023-05-15T06:01:14.878Z,5
2023-05-15T06:02:15.653Z,4
2023-05-15T06:03:15.444Z,4
2023-05-15T06:04:18.305Z,4
2023-05-15T06:05:15.813Z,4
2023-05-15T06:07:14.787Z,3
2023-05-15T06:08:15.411Z,3
2023-05-15T06:09:15.421Z,3
2023-05-15T06:12:14.915Z,0
2023-05-15T06:13:14.480Z,0
2023-05-15T06:14:15.377Z,0
2023-05-15T06:15:14.999Z,0
2023-05-15T06:16:15.082Z,0
2023-05-15T06:17:15.441Z,3
2023-05-15T06:20:15.182Z,3
2023-05-15T06:21:14.828Z,3
2023-05-15T06:22:14.833Z,1
2023-05-15T06:23:14.990Z,1
2023-05-15T06:24:14.963Z,1
2023-05-15T06:25:15.157Z,1
2023-05-15T06:27:14.650Z,5
2023-05-15T06:28:14.767Z,5
2023-05-15T06:29:15.053Z,5
2023-05-15T06:30:15.261Z,5
2023-05-15T06:31:15.648Z,5
2023-05-15T06:32:14.768Z,6
2023-05-15T06:33:15.716Z,6
2023-05-15T06:34:14.695Z,6
2023-05-15T06:35:15.142Z,6
2023-05-15T06:36:14.905Z,6
2023-05-15T06:37:13.761Z,6
2023-05-15T06:38:14.897Z,6
2023-05-15T06:39:14.907Z,6
2023-05-15T06:40:13.987Z,6
2023-05-15T06:41:14.634Z,6
2023-05-15T06:42:15.572Z,8
2023-05-15T06:43:15.753Z,8
2023-05-15T06:44:15.143Z,8
2023-05-15T06:45:15.673Z,8
2023-05-15T06:46:15.608Z,8
2023-05-15T06:47:16.608Z,5
2023-05-15T06:48:15.666Z,5
2023-05-15T06:50:14.874Z,5
2023-05-15T06:51:15.362Z,5
2023-05-15T06:57:14.611Z,6
2023-05-15T06:58:14.775Z,6
2023-05-15T06:59:15.520Z,6
2023-05-15T07:00:14.476Z,6
2023-05-15T07:01:14.876Z,6
2023-05-15T07:02:16.127Z,9
2023-05-15T07:03:14.514Z,9
2023-05-15T07:04:18.639Z,9
2023-05-15T07:05:15.629Z,9
2023-05-15T07:08:14.788Z,12
2023-05-15T07:09:14.878Z,12
2023-05-15T07:10:15.238Z,12
2023-05-15T07:11:14.971Z,12
2023-05-15T07:12:14.917Z,12
2023-05-15T07:13:15.001Z,12
2023-05-15T07:14:15.459Z,12
2023-05-15T07:15:15.687Z,12
2023-05-15T07:19:15.524Z,8
2023-05-15T07:20:15.351Z,8
2023-05-15T07:23:15.188Z,9
2023-05-15T07:24:15.586Z,9
2023-05-15T07:25:24.528Z,9
2023-05-15T07:26:46.905Z,9
2023-05-15T07:28:14.646Z,11
2023-05-15T07:29:17.108Z,11
2023-05-15T07:32:15.959Z,13
2023-05-15T07:33:15.568Z,13
2023-05-15T07:34:15.610Z,13
2023-05-15T07:35:14.881Z,13
2023-05-15T07:36:15.497Z,13
2023-05-15T07:37:18.236Z,11
2023-05-15T07:40:15.286Z,11
2023-05-15T07:41:15.357Z,11
2023-05-15T07:42:15.533Z,8
2023-05-15T07:43:14.834Z,8
2023-05-15T07:44:14.947Z,8
2023-05-15T07:45:15.780Z,8
2023-05-15T07:46:15.215Z,8
2023-05-15T07:47:14.541Z,7
2023-05-15T07:48:16.082Z,7
2023-05-15T07:50:14.389Z,7
2023-05-15T07:51:15.727Z,7
2023-05-15T07:52:15.910Z,11
2023-05-15T07:53:14.336Z,11
2023-05-15T07:54:15.235Z,11
2023-05-15T07:55:15.189Z,11
2023-05-15T07:58:15.080Z,13
2023-05-15T07:59:15.329Z,13
2023-05-15T08:00:15.347Z,13
2023-05-15T08:01:14.953Z,13
2023-05-15T08:02:15.032Z,7
2023-05-15T08:03:16.218Z,7
2023-05-15T08:05:15.115Z,7
2023-05-15T08:06:14.911Z,7
2023-05-15T08:07:15.247Z,12
2023-05-15T08:08:15.454Z,12
2023-05-15T08:09:14.584Z,12
2023-05-15T08:10:15.164Z,12
2023-05-15T08:13:14.842Z,7
2023-05-15T08:14:18.059Z,7
2023-05-15T08:17:13.475Z,11
2023-05-15T08:18:15.408Z,11
2023-05-15T08:19:15.917Z,11
2023-05-15T08:20:15.696Z,11
2023-05-15T08:21:16.360Z,11
2023-05-15T08:22:15.523Z,11
2023-05-15T08:23:16.895Z,11
2023-05-15T08:25:15.254Z,11
2023-05-15T08:26:15.218Z,11
2023-05-15T08:27:15.515Z,13
2023-05-15T08:28:14.698Z,13
2023-05-15T08:29:15.144Z,13
2023-05-15T08:30:15.552Z,13
2023-05-15T08:31:15.681Z,13
2023-05-15T08:32:14.510Z,7
2023-05-15T08:33:15.287Z,7
2023-05-15T08:34:14.928Z,7
2023-05-15T08:35:15.212Z,7
2023-05-15T08:36:15.860Z,7
2023-05-15T08:37:14.513Z,12
2023-05-15T08:38:15.450Z,12
2023-05-15T08:39:15.315Z,12
2023-05-15T08:42:14.637Z,11
2023-05-15T08:43:15.224Z,11
2023-05-15T08:44:14.992Z,11
2023-05-15T08:45:14.950Z,11
2023-05-15T08:46:15.216Z,11
2023-05-15T08:47:15.131Z,12
2023-05-15T08:48:15.488Z,12
2023-05-15T08:49:16.228Z,12
2023-05-15T08:50:15.106Z,12
2023-05-15T08:51:15.338Z,12
2023-05-15T08:52:15.778Z,4
2023-05-15T08:53:15.157Z,4
2023-05-15T08:54:15.252Z,4
2023-05-15T08:55:15.576Z,4
2023-05-15T08:58:13.919Z,13
2023-05-15T08:59:15.545Z,13
2023-05-15T09:00:17.373Z,13
2023-05-15T09:01:13.918Z,13
2023-05-15T09:02:15.383Z,15
2023-05-15T09:03:15.195Z,15
2023-05-15T09:06:14.792Z,15
2023-05-15T09:07:15.684Z,8
2023-05-15T09:08:15.608Z,8
2023-05-15T09:09:15.710Z,8
2023-05-15T09:10:14.461Z,8
2023-05-15T09:11:15.548Z,8
2023-05-15T09:14:14.920Z,11
2023-05-15T09:15:15.387Z,11
2023-05-15T09:16:14.919Z,11
2023-05-15T09:17:15.755Z,11
2023-05-15T09:18:16.058Z,11
2023-05-15T09:19:15.035Z,11
2023-05-15T09:20:15.110Z,11
2023-05-15T09:21:14.327Z,11
2023-05-15T09:22:14.902Z,9
2023-05-15T09:23:14.988Z,9
2023-05-15T09:24:14.370Z,9
2023-05-15T09:25:15.294Z,9
2023-05-15T09:26:15.299Z,9
2023-05-15T09:29:16.808Z,3
2023-05-15T09:30:15.470Z,3
2023-05-15T09:31:15.502Z,3
2023-05-15T09:32:15.691Z,5
2023-05-15T09:33:15.169Z,5
2023-05-15T09:36:15.083Z,5
2023-05-15T09:37:14.897Z,4
2023-05-15T09:38:15.276Z,4
2023-05-15T09:39:15.585Z,4
2023-05-15T09:40:14.911Z,4
2023-05-15T09:41:15.155Z,4
2023-05-15T09:42:15.199Z,12
2023-05-15T09:43:15.289Z,12
2023-05-15T09:44:15.117Z,12
2023-05-15T09:45:14.275Z,12
2023-05-15T09:46:15.678Z,12
2023-05-15T09:47:15.459Z,7
2023-05-15T09:50:14.957Z,7
2023-05-15T09:51:14.719Z,7
2023-05-15T09:52:14.972Z,5
2023-05-15T09:54:14.971Z,5
2023-05-15T09:55:15.841Z,5
2023-05-15T09:56:15.670Z,5
2023-05-15T09:57:15.528Z,8
2023-05-15T09:58:15.834Z,8
2023-05-15T10:02:14.765Z,6
2023-05-15T10:03:15.193Z,6
2023-05-15T10:04:15.313Z,6
2023-05-15T10:05:15.953Z,6
2023-05-15T10:06:15.201Z,6
2023-05-15T10:07:15.494Z,11
2023-05-15T10:08:14.888Z,11
2023-05-15T10:09:15.772Z,11
2023-05-15T10:10:15.508Z,11
2023-05-15T10:11:15.521Z,11
2023-05-15T10:12:15.831Z,12
2023-05-15T10:13:15.051Z,12
2023-05-15T10:14:15.732Z,12
2023-05-15T10:15:15.715Z,12
2023-05-15T10:16:15.795Z,12
2023-05-15T10:20:14.858Z,7
2023-05-15T10:21:15.428Z,7
2023-05-15T10:22:15.029Z,4
2023-05-15T10:23:15.440Z,4
2023-05-15T10:24:14.570Z,4
2023-05-15T10:25:15.448Z,4
2023-05-15T10:26:15.675Z,4
2023-05-15T10:27:15.754Z,3
2023-05-15T10:31:15.667Z,3
2023-05-15T10:32:14.384Z,13
2023-05-15T10:33:15.945Z,13
2023-05-15T10:34:14.762Z,13
2023-05-15T10:35:15.108Z,13
2023-05-15T10:36:15.207Z,13
2023-05-15T10:37:15.418Z,11
2023-05-15T10:38:15.545Z,11
2023-05-15T10:39:15.152Z,11
2023-05-15T10:40:15.429Z,11
2023-05-15T10:46:14.914Z,5
2023-05-15T10:47:16.000Z,4
2023-05-15T10:48:16.153Z,4
2023-05-15T10:49:14.734Z,4
2023-05-15T10:50:15.121Z,4
2023-05-15T10:51:17.660Z,4
2023-05-15T10:52:14.815Z,5
2023-05-15T10:56:15.111Z,5
2023-05-15T10:57:14.762Z,9
2023-05-15T10:58:15.080Z,9
2023-05-15T10:59:15.389Z,9
2023-05-15T11:00:15.123Z,9
2023-05-15T11:01:15.523Z,9
2023-05-15T11:02:15.207Z,5
2023-05-15T11:03:15.345Z,5
2023-05-15T11:04:15.462Z,5
2023-05-15T11:05:15.248Z,5
2023-05-15T11:11:16.259Z,7
2023-05-15T11:12:15.361Z,19
2023-05-15T11:13:14.996Z,19
2023-05-15T11:14:15.454Z,19
2023-05-15T11:15:14.516Z,19
2023-05-15T11:16:16.393Z,19
2023-05-15T11:17:14.756Z,8
2023-05-15T11:18:15.196Z,8
2023-05-15T11:19:15.213Z,8
2023-05-15T11:20:15.458Z,8
2023-05-15T11:22:15.093Z,15
2023-05-15T11:23:14.705Z,15
2023-05-15T11:26:15.169Z,15
2023-05-15T11:27:15.345Z,14
2023-05-15T11:28:15.189Z,14
2023-05-15T11:29:15.337Z,14
2023-05-15T11:30:16.102Z,14
2023-05-15T11:31:15.169Z,14
2023-05-15T11:32:15.210Z,11
2023-05-15T11:33:15.967Z,11
2023-05-15T11:34:14.651Z,11
2023-05-15T11:35:15.347Z,11
2023-05-15T11:36:14.568Z,11
2023-05-15T11:37:15.054Z,6
2023-05-15T11:38:15.428Z,6
2023-05-15T11:39:14.546Z,6
2023-05-15T11:40:15.027Z,6
2023-05-15T11:41:15.595Z,6
2023-05-15T11:42:15.593Z,5
2023-05-15T11:43:15.667Z,5
2023-05-15T11:44:15.815Z,5
2023-05-15T11:45:15.466Z,5
2023-05-15T11:46:15.644Z,5
2023-05-15T11:47:15.777Z,5
2023-05-15T11:48:15.414Z,5
2023-05-15T11:49:15.173Z,5
2023-05-15T11:50:15.391Z,5
2023-05-15T11:51:15.432Z,5
2023-05-15T11:52:14.871Z,17
2023-05-15T11:53:15.327Z,17
2023-05-15T11:54:17.050Z,17
2023-05-15T11:55:15.481Z,17
2023-05-15T11:56:14.985Z,17
2023-05-15T11:57:15.351Z,9
2023-05-15T12:00:15.045Z,9
2023-05-15T12:01:17.448Z,9
2023-05-15T12:02:15.586Z,8
2023-05-15T12:03:15.376Z,8
2023-05-15T12:04:17.101Z,8
2023-05-15T12:05:15.025Z,8
2023-05-15T12:08:15.699Z,5
2023-05-15T12:09:14.870Z,5
2023-05-15T12:10:15.457Z,5
2023-05-15T12:11:15.782Z,5
2023-05-15T12:12:15.376Z,7
2023-05-15T12:13:15.111Z,7
2023-05-15T12:14:15.442Z,7
2023-05-15T12:17:15.964Z,7
2023-05-15T12:18:14.919Z,7
2023-05-15T12:19:15.603Z,7
2023-05-15T12:20:14.695Z,7
2023-05-15T12:21:15.311Z,7
2023-05-15T12:22:15.464Z,5
2023-05-15T12:25:14.186Z,5
2023-05-15T12:26:15.516Z,5
2023-05-15T12:27:14.990Z,4
2023-05-15T12:31:14.897Z,4
2023-05-15T12:32:15.472Z,8
2023-05-15T12:33:15.312Z,8
2023-05-15T12:34:14.917Z,8
2023-05-15T12:35:15.051Z,8
2023-05-15T12:36:14.746Z,8
2023-05-15T12:37:14.919Z,24
2023-05-15T12:38:15.429Z,24
2023-05-15T12:39:15.613Z,24
2023-05-15T12:40:15.356Z,24
2023-05-15T12:41:15.596Z,24
2023-05-15T12:42:14.973Z,17
2023-05-15T12:43:15.407Z,17
2023-05-15T12:44:15.483Z,17
2023-05-15T12:48:14.991Z,9
2023-05-15T12:49:16.109Z,9
2023-05-15T12:50:14.902Z,9
2023-05-15T12:51:14.611Z,9
2023-05-15T12:52:15.644Z,9
2023-05-15T12:53:15.483Z,9
2023-05-15T12:54:15.345Z,9
2023-05-15T12:55:15.512Z,9
2023-05-15T12:56:16.287Z,9
2023-05-15T12:57:15.327Z,6
2023-05-15T12:58:15.288Z,6
2023-05-15T12:59:15.306Z,6
2023-05-15T13:00:15.416Z,6
2023-05-15T13:01:17.504Z,6
2023-05-15T13:02:15.792Z,5
2023-05-15T13:03:16.271Z,5
2023-05-15T13:04:15.260Z,5
2023-05-15T13:05:15.134Z,5
2023-05-15T13:06:15.697Z,5
2023-05-15T13:08:15.011Z,4
2023-05-15T13:09:15.562Z,4
2023-05-15T13:10:15.127Z,4
2023-05-15T13:11:15.129Z,4
2023-05-15T13:14:15.076Z,5
2023-05-15T13:15:14.213Z,5
2023-05-15T13:16:17.764Z,5
2023-05-15T13:17:14.833Z,5
2023-05-15T13:18:14.316Z,5
2023-05-15T13:19:15.139Z,5
2023-05-15T13:21:14.950Z,5
2023-05-15T13:22:14.978Z,4
2023-05-15T13:23:15.438Z,4
2023-05-15T13:24:15.674Z,4
2023-05-15T13:25:14.331Z,4
2023-05-15T13:26:15.325Z,4
2023-05-15T13:27:15.643Z,1
2023-05-15T13:28:15.780Z,1
2023-05-15T13:29:15.182Z,1
2023-05-15T13:30:15.067Z,1
2023-05-15T13:31:15.433Z,1
2023-05-15T13:32:15.168Z,4
2023-05-15T13:33:16.095Z,4
2023-05-15T13:34:14.633Z,4
2023-05-15T13:35:14.778Z,4
2023-05-15T13:39:15.071Z,5
2023-05-15T13:40:15.660Z,5
2023-05-15T13:43:15.754Z,7
2023-05-15T13:44:15.148Z,7
2023-05-15T13:45:14.782Z,7
2023-05-15T13:46:15.759Z,7
2023-05-15T13:47:15.579Z,1
2023-05-15T13:48:15.886Z,1
2023-05-15T13:49:16.592Z,1
2023-05-15T13:50:15.333Z,1
2023-05-15T13:51:15.472Z,1
2023-05-15T13:52:14.628Z,3
2023-05-15T13:53:15.351Z,3
2023-05-15T13:54:15.668Z,3
2023-05-15T13:55:14.954Z,3
2023-05-15T13:56:15.562Z,3
2023-05-15T13:58:14.583Z,3
2023-05-15T13:59:14.897Z,3
2023-05-15T14:00:15.076Z,3
2023-05-15T14:01:15.486Z,3
2023-05-15T14:02:15.667Z,7
2023-05-15T14:03:19.721Z,7
2023-05-15T14:05:15.407Z,7
2023-05-15T14:06:15.344Z,7
2023-05-15T14:07:15.635Z,4
2023-05-15T14:08:15.332Z,4
2023-05-15T14:09:15.322Z,4
2023-05-15T14:10:15.557Z,4
2023-05-15T14:13:14.773Z,4
2023-05-15T14:14:14.869Z,4
2023-05-15T14:15:14.969Z,4
2023-05-15T14:16:15.702Z,4
2023-05-15T14:17:14.935Z,6
2023-05-15T14:18:15.265Z,6
2023-05-15T14:19:15.587Z,6
2023-05-15T14:20:15.674Z,6
2023-05-15T14:21:14.834Z,6
2023-05-15T14:22:15.457Z,6
2023-05-15T14:23:15.629Z,6
2023-05-15T14:24:14.906Z,6
2023-05-15T14:25:15.214Z,6
2023-05-15T14:26:15.736Z,6
2023-05-15T14:27:15.287Z,7
2023-05-15T14:28:15.050Z,7
2023-05-15T14:29:16.082Z,7
2023-05-15T14:31:15.224Z,7
2023-05-15T14:32:15.694Z,6
2023-05-15T14:33:15.649Z,6
2023-05-15T14:34:15.619Z,6
2023-05-15T14:35:15.374Z,6
2023-05-15T14:36:15.084Z,6
2023-05-15T14:37:15.379Z,5
2023-05-15T14:42:14.971Z,5
2023-05-15T14:43:15.194Z,5
2023-05-15T14:44:14.052Z,5
2023-05-15T14:45:15.314Z,5
2023-05-15T14:46:19.275Z,5
2023-05-15T14:47:14.749Z,11
2023-05-15T14:48:15.502Z,11
2023-05-15T14:52:14.829Z,9
2023-05-15T14:53:15.169Z,9
2023-05-15T14:54:15.435Z,9
2023-05-15T14:55:18.574Z,9
2023-05-15T14:56:15.066Z,9
2023-05-15T14:57:14.794Z,11
2023-05-15T14:58:15.011Z,11
2023-05-15T15:01:15.483Z,11
2023-05-15T15:02:15.782Z,11
2023-05-15T15:03:16.432Z,11
2023-05-15T15:04:15.336Z,11
2023-05-15T15:05:15.129Z,11
2023-05-15T15:06:15.220Z,11
2023-05-15T15:07:15.397Z,9
2023-05-15T15:08:14.492Z,9
2023-05-15T15:09:14.994Z,9
2023-05-15T15:10:15.166Z,9
2023-05-15T15:11:15.003Z,9
2023-05-15T15:12:15.435Z,11
2023-05-15T15:13:14.932Z,11
2023-05-15T15:14:13.866Z,11
2023-05-15T15:15:14.888Z,11
2023-05-15T15:16:15.920Z,11
2023-05-15T15:17:13.610Z,11
2023-05-15T15:19:17.573Z,11
2023-05-15T15:20:15.869Z,11
2023-05-15T15:21:15.425Z,11
2023-05-15T15:22:15.308Z,8
2023-05-15T15:23:15.218Z,8
2023-05-15T15:24:15.565Z,8
2023-05-15T15:25:15.295Z,8
2023-05-15T15:26:14.713Z,8
2023-05-15T15:27:14.807Z,5
2023-05-15T15:28:15.267Z,5
2023-05-15T15:29:15.364Z,5
2023-05-15T15:32:15.407Z,5
2023-05-15T15:33:15.225Z,5
2023-05-15T15:35:15.560Z,5
2023-05-15T15:36:15.502Z,5
2023-05-15T15:37:15.681Z,5
2023-05-15T15:38:15.505Z,5
2023-05-15T15:39:15.214Z,5
2023-05-15T15:43:15.406Z,8
2023-05-15T15:44:15.243Z,8
2023-05-15T15:45:15.527Z,8
2023-05-15T15:46:15.537Z,8
2023-05-15T15:47:15.303Z,12
2023-05-15T15:48:15.564Z,12
2023-05-15T15:50:15.437Z,12
2023-05-15T15:51:15.342Z,12
2023-05-15T15:52:15.075Z,6
2023-05-15T15:53:15.333Z,6
2023-05-15T15:56:14.944Z,6
2023-05-15T15:57:14.585Z,19
2023-05-15T15:58:14.974Z,19
2023-05-15T15:59:15.569Z,19
2023-05-15T16:00:15.150Z,19
2023-05-15T16:01:14.997Z,19
2023-05-15T16:02:15.350Z,17
2023-05-15T16:03:15.630Z,17
2023-05-15T16:04:14.209Z,17
2023-05-15T16:05:15.213Z,17
2023-05-15T16:06:14.900Z,17
2023-05-15T16:07:13.785Z,13
2023-05-15T16:08:15.212Z,13
2023-05-15T16:09:14.772Z,13
2023-05-15T16:11:14.541Z,13
2023-05-15T16:12:15.001Z,7
2023-05-15T16:18:15.577Z,7
2023-05-15T16:19:15.244Z,7
2023-05-15T16:20:15.282Z,7
2023-05-15T16:21:14.857Z,7
2023-05-15T16:22:14.958Z,5
2023-05-15T16:23:15.515Z,5
2023-05-15T16:24:14.464Z,5
2023-05-15T16:25:15.619Z,5
2023-05-15T16:26:14.792Z,5
2023-05-15T16:27:14.668Z,11
2023-05-15T16:29:14.737Z,11
2023-05-15T16:30:15.561Z,11
2023-05-15T16:31:15.815Z,11
2023-05-15T16:32:14.948Z,7
2023-05-15T16:33:15.084Z,7
2023-05-15T16:34:16.751Z,7
2023-05-15T16:35:15.513Z,7
2023-05-15T16:36:15.067Z,7
2023-05-15T16:37:15.267Z,9
2023-05-15T16:38:14.763Z,9
2023-05-15T16:39:15.187Z,9
2023-05-15T16:40:15.374Z,9
2023-05-15T16:41:15.608Z,9
2023-05-15T16:42:17.881Z,9
2023-05-15T16:43:15.023Z,9
2023-05-15T16:44:15.412Z,9
2023-05-15T16:45:15.530Z,9
2023-05-15T16:46:14.992Z,9
2023-05-15T16:47:15.016Z,5
2023-05-15T16:50:15.102Z,5
2023-05-15T16:51:14.224Z,5
2023-05-15T16:52:15.071Z,9
2023-05-15T16:53:15.327Z,9
2023-05-15T16:54:15.236Z,9
2023-05-15T16:55:15.081Z,9
2023-05-15T16:56:14.891Z,9
2023-05-15T16:57:15.628Z,6
2023-05-15T16:58:14.848Z,6
2023-05-15T16:59:14.940Z,6
2023-05-15T17:00:15.527Z,6
2023-05-15T17:01:15.491Z,6
2023-05-15T17:02:16.360Z,13
2023-05-15T17:05:15.280Z,13
2023-05-15T17:06:15.171Z,13
2023-05-15T17:07:14.741Z,13
2023-05-15T17:08:15.134Z,13
2023-05-15T17:09:15.189Z,13
2023-05-15T17:10:15.529Z,13
2023-05-15T17:11:14.723Z,13
2023-05-15T17:14:15.529Z,5
2023-05-15T17:15:14.807Z,5
2023-05-15T17:16:16.062Z,5
2023-05-15T17:17:14.648Z,9
2023-05-15T17:18:15.361Z,9
2023-05-15T17:19:16.036Z,9
2023-05-15T17:20:15.414Z,9
2023-05-15T17:21:15.077Z,9
2023-05-15T17:22:15.466Z,7
2023-05-15T17:23:14.829Z,7
2023-05-15T17:24:14.988Z,7
2023-05-15T17:25:14.784Z,7
2023-05-15T17:26:15.448Z,7
2023-05-15T17:27:14.631Z,5
2023-05-15T17:28:14.977Z,5
2023-05-15T17:29:15.224Z,5
2023-05-15T17:30:15.951Z,5
2023-05-15T17:31:14.693Z,5
2023-05-15T17:32:15.337Z,7
2023-05-15T17:33:15.833Z,7
2023-05-15T17:34:15.298Z,7
2023-05-15T17:35:14.282Z,7
2023-05-15T17:36:14.846Z,7
2023-05-15T17:37:15.069Z,7
2023-05-15T17:38:13.913Z,7
2023-05-15T17:39:15.323Z,7
2023-05-15T17:40:15.162Z,7
2023-05-15T17:41:15.420Z,7
2023-05-15T17:44:14.980Z,8
2023-05-15T17:45:15.244Z,8
2023-05-15T17:46:16.140Z,8
2023-05-15T17:47:14.841Z,6
2023-05-15T17:48:15.283Z,6
2023-05-15T17:49:15.485Z,6
2023-05-15T17:50:15.587Z,6